createdAt,value
2022-09-23T00:02:37.801Z,9.34
2022-09-23T00:07:39.547Z,9.35
2022-09-23T00:12:41.051Z,9.22
2022-09-23T00:17:43.215Z,9.04
2022-09-23T00:22:44.873Z,9.44
2022-09-23T00:27:46.422Z,9.46
2022-09-23T00:32:47.999Z,9.17
2022-09-23T00:37:49.494Z,9.60
2022-09-23T00:42:52.109Z,9.40
2022-09-23T00:47:56.567Z,9.40
2022-09-23T00:52:59.761Z,9.31
2022-09-23T00:58:03.959Z,9.30
2022-09-23T01:03:06.860Z,9.24
2022-09-23T01:08:10.529Z,9.27
2022-09-23T01:13:32.064Z,8.96
2022-09-23T01:18:43.534Z,8.77
2022-09-23T01:24:02.317Z,9.14
2022-09-23T01:29:41.570Z,9.35
2022-09-23T01:34:42.981Z,9.28
2022-09-23T01:40:11.355Z,9.20
2022-09-23T01:45:33.957Z,9.28
2022-09-23T01:50:55.931Z,9.17
2022-09-23T01:56:02.121Z,9.14
2022-09-23T02:01:07.101Z,8.71
2022-09-23T02:06:13.153Z,8.97
2022-09-23T02:11:15.579Z,8.81
2022-09-23T02:16:31.559Z,8.97
2022-09-23T02:21:40.470Z,8.61
2022-09-23T02:27:06.649Z,8.71
2022-09-23T02:32:22.893Z,8.85
2022-09-23T02:37:37.157Z,9.11
2022-09-23T02:42:50.176Z,9.07
2022-09-23T02:47:57.124Z,8.63
2022-09-23T02:52:59.396Z,9.07
2022-09-23T02:58:02.017Z,9.00
2022-09-23T03:03:19.086Z,8.92
2022-09-23T03:08:37.045Z,8.89
2022-09-23T03:13:53.852Z,8.82
2022-09-23T03:19:05.946Z,8.94
2022-09-23T03:24:09.198Z,8.71
2022-09-23T03:29:11.675Z,8.47
2022-09-23T03:34:24.308Z,8.41
2022-09-23T03:39:25.740Z,8.41
2022-09-23T03:44:29.230Z,8.81
2022-09-23T03:49:35.061Z,8.75
2022-09-23T03:54:36.602Z,8.44
2022-09-23T03:59:38.573Z,8.23
2022-09-23T04:04:41.376Z,8.53
2022-09-23T04:09:43.196Z,8.34
2022-09-23T04:14:45.074Z,8.32
2022-09-23T04:19:46.667Z,8.31
2022-09-23T04:24:48.634Z,8.66
2022-09-23T04:29:50.394Z,7.88
2022-09-23T04:34:51.914Z,8.26
2022-09-23T04:39:54.310Z,8.43
2022-09-23T04:44:55.876Z,7.85
2022-09-23T04:49:59.885Z,7.62
2022-09-23T04:55:02.060Z,7.88
2022-09-23T05:00:04.082Z,7.53
2022-09-23T05:05:05.789Z,7.72
2022-09-23T05:10:07.957Z,7.50
2022-09-23T05:15:09.661Z,7.85
2022-09-23T05:20:11.618Z,7.64
2022-09-23T05:25:13.177Z,8.29
2022-09-23T05:30:14.877Z,8.17
2022-09-23T05:35:16.541Z,8.52
2022-09-23T05:40:18.206Z,8.45
2022-09-23T05:45:19.825Z,8.65
2022-09-23T05:50:21.548Z,8.69
2022-09-23T05:55:23.163Z,9.05
2022-09-23T06:00:25.990Z,9.12
2022-09-23T06:05:27.594Z,9.00
2022-09-23T06:10:30.317Z,9.44
2022-09-23T06:15:32.690Z,9.34
2022-09-23T06:20:35.485Z,9.44
2022-09-23T06:25:40.683Z,9.56
2022-09-23T06:30:42.686Z,9.44
2022-09-23T06:35:53.039Z,9.81
2022-09-23T06:40:58.098Z,9.83
2022-09-23T06:46:00.984Z,9.97
2022-09-23T06:51:05.086Z,10.17
2022-09-23T06:56:08.309Z,10.33
2022-09-23T07:01:18.224Z,10.33
2022-09-23T07:06:20.259Z,10.50
2022-09-23T07:11:22.595Z,10.73
2022-09-23T07:16:24.444Z,10.82
2022-09-23T07:21:27.895Z,10.94
2022-09-23T07:26:30.927Z,11.02
2022-09-23T07:31:39.167Z,11.25
2022-09-23T07:36:41.426Z,11.36
2022-09-23T07:41:44.613Z,11.44
2022-09-23T07:46:46.795Z,11.56
2022-09-23T07:51:48.769Z,11.69
2022-09-23T07:56:50.289Z,11.78
2022-09-23T08:01:54.948Z,11.90
2022-09-23T08:07:01.726Z,11.93
2022-09-23T08:12:03.572Z,12.06
2022-09-23T08:17:05.890Z,12.21
2022-09-23T08:22:07.472Z,12.19
2022-09-23T08:27:10.830Z,12.38
2022-09-23T08:32:12.330Z,12.42
2022-09-23T08:37:13.885Z,12.42
2022-09-23T08:42:23.257Z,12.52
2022-09-23T08:47:43.734Z,12.60
2022-09-23T08:53:14.977Z,12.68
2022-09-23T08:58:33.247Z,12.72
2022-09-23T09:03:46.343Z,12.73
2022-09-23T09:08:55.066Z,12.82
2022-09-23T09:14:19.752Z,12.97
2022-09-23T09:19:32.307Z,12.99
2022-09-23T09:24:35.039Z,13.10
2022-09-23T09:29:39.934Z,13.10
2022-09-23T09:34:49.348Z,13.23
2022-09-23T09:39:50.862Z,13.30
2022-09-23T09:45:03.659Z,13.36
2022-09-23T09:50:21.206Z,13.52
2022-09-23T09:55:26.419Z,13.54
2022-09-23T10:00:27.847Z,13.70
2022-09-23T10:05:34.630Z,13.70
2022-09-23T10:10:36.168Z,13.86
2022-09-23T10:15:45.366Z,13.83
2022-09-23T10:20:48.048Z,13.85
2022-09-23T10:26:03.529Z,13.86
2022-09-23T10:31:06.517Z,13.94
2022-09-23T10:36:11.147Z,13.94
2022-09-23T10:41:50.857Z,14.01
2022-09-23T10:47:15.604Z,14.12
2022-09-23T10:52:38.062Z,14.07
2022-09-23T10:57:45.541Z,14.16
2022-09-23T11:03:09.444Z,14.18
2022-09-23T11:08:27.266Z,14.22
2022-09-23T11:13:42.933Z,14.44
2022-09-23T11:19:22.146Z,14.37
2022-09-23T11:25:04.243Z,14.43
2022-09-23T11:30:09.060Z,14.55
2022-09-23T11:35:22.656Z,14.76
2022-09-23T11:40:31.995Z,14.77
2022-09-23T11:45:37.453Z,14.90
2022-09-23T11:51:03.662Z,14.97
2022-09-23T11:56:10.553Z,14.94
2022-09-23T12:01:23.452Z,14.98
2022-09-23T12:06:45.103Z,14.97
2022-09-23T12:11:53.683Z,15.10
2022-09-23T12:17:11.154Z,15.24
2022-09-23T12:22:15.670Z,15.48
2022-09-23T12:27:38.941Z,15.40
2022-09-23T12:32:42.215Z,15.31
2022-09-23T12:37:43.874Z,15.40
2022-09-23T12:42:47.158Z,15.43
2022-09-23T12:47:48.839Z,15.51
2022-09-23T12:52:50.550Z,15.56
2022-09-23T12:57:52.203Z,15.56
2022-09-23T13:03:15.292Z,15.61
2022-09-23T13:08:22.587Z,15.53
2022-09-23T13:13:31.650Z,15.53
2022-09-23T13:18:52.657Z,15.56
2022-09-23T13:24:12.699Z,15.66
2022-09-23T13:29:20.325Z,15.69
2022-09-23T13:34:24.866Z,15.66
2022-09-23T13:39:27.642Z,15.60
2022-09-23T13:44:29.713Z,15.62
2022-09-23T13:49:35.917Z,15.62
2022-09-23T13:54:49.301Z,15.71
2022-09-23T13:59:50.895Z,15.72
2022-09-23T14:04:52.784Z,15.75
2022-09-23T14:09:55.686Z,15.73
2022-09-23T14:14:57.479Z,15.62
2022-09-23T14:19:59.071Z,15.63
2022-09-23T14:25:00.648Z,15.61
2022-09-23T14:30:03.060Z,15.62
2022-09-23T14:35:14.422Z,15.58
2022-09-23T14:40:26.808Z,15.55
2022-09-23T14:45:35.420Z,15.54
2022-09-23T14:50:37.215Z,15.55
2022-09-23T14:55:38.817Z,15.56
2022-09-23T15:00:54.433Z,15.57
2022-09-23T15:06:08.359Z,15.57
2022-09-23T15:11:10.271Z,15.51
2022-09-23T15:16:14.337Z,15.50
2022-09-23T15:21:18.660Z,15.52
2022-09-23T15:26:47.255Z,15.49
2022-09-23T15:31:48.899Z,15.47
2022-09-23T15:36:50.771Z,15.44
2022-09-23T15:41:52.729Z,15.39
2022-09-23T15:46:55.847Z,15.35
2022-09-23T15:51:59.265Z,15.27
2022-09-23T15:57:01.304Z,15.23
2022-09-23T16:02:05.750Z,15.24
2022-09-23T16:07:10.959Z,15.23
2022-09-23T16:12:12.640Z,15.21
2022-09-23T16:17:14.655Z,15.15
2022-09-23T16:22:16.606Z,15.12
2022-09-23T16:27:19.124Z,15.08
2022-09-23T16:32:22.334Z,15.03
2022-09-23T16:37:24.949Z,14.99
2022-09-23T16:42:27.451Z,14.94
2022-09-23T16:47:28.966Z,14.88
2022-09-23T16:52:31.070Z,14.82
2022-09-23T16:57:32.645Z,14.80
2022-09-23T17:02:52.848Z,14.72
2022-09-23T17:07:54.816Z,14.72
2022-09-23T17:12:57.913Z,14.66
2022-09-23T17:17:59.410Z,14.59
2022-09-23T17:23:01.132Z,14.58
2022-09-23T17:28:02.674Z,14.54
2022-09-23T17:33:04.278Z,14.47
2022-09-23T17:38:05.908Z,14.40
2022-09-23T17:43:07.802Z,14.43
2022-09-23T17:48:09.345Z,14.34
2022-09-23T17:53:10.841Z,14.29
2022-09-23T17:58:12.342Z,14.23
2022-09-23T18:03:14.880Z,14.25
2022-09-23T18:08:16.652Z,14.28
2022-09-23T18:13:18.409Z,14.06
2022-09-23T18:18:20.660Z,13.96
2022-09-23T18:23:26.000Z,13.88
2022-09-23T18:28:34.615Z,13.84
2022-09-23T18:33:36.864Z,13.86
2022-09-23T18:38:38.703Z,13.71
2022-09-23T18:43:44.031Z,13.61
2022-09-23T18:49:06.909Z,13.81
2022-09-23T18:54:08.742Z,13.64
2022-09-23T18:59:19.398Z,13.52
2022-09-23T19:04:21.181Z,13.49
2022-09-23T19:09:22.688Z,13.58
2022-09-23T19:14:24.497Z,13.37
2022-09-23T19:19:26.028Z,13.26
2022-09-23T19:24:28.170Z,13.30
2022-09-23T19:29:30.386Z,13.34
2022-09-23T19:34:34.601Z,13.11
2022-09-23T19:39:37.485Z,13.16
2022-09-23T19:44:40.944Z,12.96
2022-09-23T19:49:42.563Z,13.12
2022-09-23T19:54:44.499Z,12.92
2022-09-23T19:59:46.353Z,12.94
2022-09-23T20:04:47.944Z,12.88
2022-09-23T20:09:49.586Z,12.86
2022-09-23T20:14:51.809Z,12.85
2022-09-23T20:19:53.356Z,12.77
2022-09-23T20:24:56.235Z,12.59
2022-09-23T20:29:58.685Z,12.57
2022-09-23T20:35:00.914Z,12.50
2022-09-23T20:40:05.128Z,12.60
2022-09-23T20:45:07.285Z,12.53
2022-09-23T20:50:09.224Z,12.42
2022-09-23T20:55:10.948Z,12.31
2022-09-23T21:00:13.141Z,12.30
2022-09-23T21:05:15.100Z,12.27
2022-09-23T21:10:16.594Z,12.14
2022-09-23T21:15:18.222Z,12.30
2022-09-23T21:20:19.790Z,12.37
2022-09-23T21:25:29.414Z,12.30
2022-09-23T21:30:32.095Z,12.24
2022-09-23T21:35:33.641Z,12.12
2022-09-23T21:40:53.621Z,11.98
2022-09-23T21:45:59.925Z,11.91
2022-09-23T21:51:03.573Z,12.12
2022-09-23T21:56:07.137Z,12.17
2022-09-23T22:01:15.207Z,12.06
2022-09-23T22:06:20.255Z,12.01
2022-09-23T22:11:42.190Z,11.98
2022-09-23T22:16:44.321Z,12.09
2022-09-23T22:21:45.960Z,12.04
2022-09-23T22:26:47.710Z,11.93
2022-09-23T22:32:08.175Z,12.06
2022-09-23T22:37:09.685Z,12.06
2022-09-23T22:42:13.098Z,11.89
2022-09-23T22:47:15.116Z,12.03
2022-09-23T22:52:21.176Z,12.11
2022-09-23T22:57:22.838Z,11.96
2022-09-23T23:02:24.360Z,12.29
2022-09-23T23:07:25.921Z,12.24
2022-09-23T23:12:27.445Z,12.00
2022-09-23T23:17:29.832Z,11.91
2022-09-23T23:22:31.362Z,11.88
2022-09-23T23:27:32.932Z,11.70
2022-09-23T23:32:34.476Z,11.75
2022-09-23T23:37:36.025Z,11.81
2022-09-23T23:42:37.621Z,11.86
2022-09-23T23:47:39.981Z,11.96
2022-09-23T23:52:44.040Z,11.84
2022-09-23T23:57:45.524Z,11.81
